sensor_id;sensor_type;location;lat;lon;timestamp;pressure;altitude;pressure_sealevel;temperature;humidity
6500;BME280;3283;52.330;9.772;2023-02-01T05:06:56;100507.38;;;4.26;100.00
6500;BME280;3283;52.330;9.772;2023-02-01T05:09:21;100497.88;;;4.31;100.00
6500;BME280;3283;52.330;9.772;2023-02-01T05:11:47;100493.56;;;4.32;100.00
6500;BME280;3283;52.330;9.772;2023-02-01T05:14:31;100489.22;;;4.32;100.00
6500;BME280;3283;52.330;9.772;2023-02-01T05:16:56;100485.75;;;4.33;100.00
6500;BME280;3283;52.330;9.772;2023-02-01T05:19:22;100489.22;;;4.35;100.00
6500;BME280;3283;52.330;9.772;2023-02-01T05:21:47;100490.13;;;4.37;100.00
6500;BME280;3283;52.330;9.772;2023-02-01T05:24:12;100478.94;;;4.48;100.00
6500;BME280;3283;52.330;9.772;2023-02-01T05:26:40;100484.16;;;4.51;100.00
6500;BME280;3283;52.330;9.772;2023-02-01T05:29:07;100480.69;;;4.49;100.00
6500;BME280;3283;52.330;9.772;2023-02-01T05:31:32;100497.09;;;4.41;100.00
6500;BME280;3283;52.330;9.772;2023-02-01T05:33:58;100500.50;;;4.34;100.00
6500;BME280;3283;52.330;9.772;2023-02-01T05:36:23;100497.00;;;4.31;100.00
6500;BME280;3283;52.330;9.772;2023-02-01T05:38:49;100479.59;;;4.25;100.00
6500;BME280;3283;52.330;9.772;2023-02-01T05:41:14;100482.25;;;4.31;100.00
6500;BME280;3283;52.330;9.772;2023-02-01T05:43:40;100482.25;;;4.31;100.00
6500;BME280;3283;52.330;9.772;2023-02-01T05:46:05;100478.00;;;4.43;100.00
6500;BME280;3283;52.330;9.772;2023-02-01T05:48:30;100471.94;;;4.44;100.00
6500;BME280;3283;52.330;9.772;2023-02-01T05:50:56;100465.91;;;4.49;100.00
6500;BME280;3283;52.330;9.772;2023-02-01T05:53:21;100474.66;;;4.53;100.00
6500;BME280;3283;52.330;9.772;2023-02-01T05:55:46;100466.91;;;4.65;100.00
6500;BME280;3283;52.330;9.772;2023-02-01T05:58:12;100468.72;;;4.71;100.00
6500;BME280;3283;52.330;9.772;2023-02-01T06:00:38;100456.59;;;4.77;100.00
6500;BME280;3283;52.330;9.772;2023-02-01T06:03:03;100456.59;;;4.77;100.00
6500;BME280;3283;52.330;9.772;2023-02-01T06:05:28;100456.53;;;4.68;100.00
6500;BME280;3283;52.330;9.772;2023-02-01T06:07:54;100443.44;;;4.63;100.00
6500;BME280;3283;52.330;9.772;2023-02-01T06:10:19;100456.50;;;4.65;100.00
6500;BME280;3283;52.330;9.772;2023-02-01T06:12:45;100452.19;;;4.65;100.00
6500;BME280;3283;52.330;9.772;2023-02-01T06:15:12;100446.06;;;4.65;100.00
6500;BME280;3283;52.330;9.772;2023-02-01T06:17:38;100439.16;;;4.65;100.00
6500;BME280;3283;52.330;9.772;2023-02-01T06:20:06;100428.75;;;4.70;100.00
6500;BME280;3283;52.330;9.772;2023-02-01T06:22:32;100440.03;;;4.72;100.00
6500;BME280;3283;52.330;9.772;2023-02-01T06:24:58;100425.31;;;4.77;100.00
6500;BME280;3283;52.330;9.772;2023-02-01T06:27:24;100434.03;;;4.81;100.00
6500;BME280;3283;52.330;9.772;2023-02-01T06:29:50;100437.53;;;4.81;100.00
6500;BME280;3283;52.330;9.772;2023-02-01T06:32:15;100436.66;;;4.82;100.00
6500;BME280;3283;52.330;9.772;2023-02-01T06:34:42;100435.78;;;4.80;100.00
6500;BME280;3283;52.330;9.772;2023-02-01T06:37:07;100427.06;;;4.78;100.00
6500;BME280;3283;52.330;9.772;2023-02-01T06:39:33;100451.38;;;4.74;100.00
6500;BME280;3283;52.330;9.772;2023-02-01T06:41:58;100449.59;;;4.72;100.00
6500;BME280;3283;52.330;9.772;2023-02-01T06:44:24;100454.75;;;4.64;100.00
6500;BME280;3283;52.330;9.772;2023-02-01T06:46:49;100453.88;;;4.63;100.00
6500;BME280;3283;52.330;9.772;2023-02-01T06:49:14;100460.81;;;4.58;100.00
6500;BME280;3283;52.330;9.772;2023-02-01T06:51:40;100466.84;;;4.53;100.00
6500;BME280;3283;52.330;9.772;2023-02-01T06:54:05;100474.66;;;4.53;100.00
6500;BME280;3283;52.330;9.772;2023-02-01T06:56:30;100471.19;;;4.55;100.00
6500;BME280;3283;52.330;9.772;2023-02-01T06:58:56;100470.31;;;4.52;100.00
6500;BME280;3283;52.330;9.772;2023-02-01T07:01:22;100475.47;;;4.49;100.00
6500;BME280;3283;52.330;9.772;2023-02-01T07:07:20;100482.50;;;4.57;100.00
6500;BME280;3283;52.330;9.772;2023-02-01T07:09:50;100480.84;;;4.65;100.00
6500;BME280;3283;52.330;9.772;2023-02-01T07:12:16;100482.53;;;4.62;100.00
6500;BME280;3283;52.330;9.772;2023-02-01T07:14:41;100476.44;;;4.58;100.00
6500;BME280;3283;52.330;9.772;2023-02-01T07:17:07;100479.06;;;4.58;100.00
6500;BME280;3283;52.330;9.772;2023-02-01T15:08:30;100469.94;;;1.89;100.00
6500;BME280;3283;52.330;9.772;2023-02-01T15:11:00;100470.28;;;2.05;100.00
6500;BME280;3283;52.330;9.772;2023-02-01T15:13:27;100466.16;;;2.17;100.00
6500;BME280;3283;52.330;9.772;2023-02-01T15:16:03;100461.44;;;2.42;100.00
6500;BME280;3283;52.330;9.772;2023-02-01T15:18:29;100462.47;;;2.53;100.00
6500;BME280;3283;52.330;9.772;2023-02-01T15:20:59;100445.34;;;2.63;100.00
6500;BME280;3283;52.330;9.772;2023-02-01T15:23:25;100438.63;;;2.75;100.00
6500;BME280;3283;52.330;9.772;2023-02-01T15:25:51;100451.78;;;2.88;100.00
6500;BME280;3283;52.330;9.772;2023-02-01T15:28:17;100449.38;;;3.00;100.00
6500;BME280;3283;52.330;9.772;2023-02-01T15:31:02;100461.66;;;3.10;100.00
6500;BME280;3283;52.330;9.772;2023-02-01T15:33:29;100445.22;;;3.11;100.00
6500;BME280;3283;52.330;9.772;2023-02-01T15:36:07;100463.38;;;3.10;100.00
6500;BME280;3283;52.330;9.772;2023-02-01T15:38:41;100452.91;;;3.05;100.00
6500;BME280;3283;52.330;9.772;2023-02-01T15:41:20;100455.44;;;3.00;100.00
6500;BME280;3283;52.330;9.772;2023-02-01T15:46:38;100457.25;;;3.05;100.00
6500;BME280;3283;52.330;9.772;2023-02-01T15:53:31;100464.63;;;2.79;100.00
6500;BME280;3283;52.330;9.772;2023-02-01T16:22:52;100448.53;;;3.02;100.00
6500;BME280;3283;52.330;9.772;2023-02-01T16:25:17;100453.91;;;3.15;100.00
6500;BME280;3283;52.330;9.772;2023-02-01T16:27:43;100436.75;;;3.24;100.00
6500;BME280;3283;52.330;9.772;2023-02-01T16:30:09;100443.69;;;3.25;100.00
